createdAt,value
2023-02-19T00:01:42.001Z,75.26
2023-02-19T00:04:15.151Z,75.22
2023-02-19T00:06:44.147Z,76.13
2023-02-19T00:09:13.366Z,75.64
2023-02-19T00:11:45.782Z,76.13
2023-02-19T00:14:17.887Z,76.54
2023-02-19T00:16:46.439Z,75.70
2023-02-19T00:19:18.149Z,75.70
2023-02-19T00:21:46.533Z,76.05
2023-02-19T00:24:17.815Z,75.91
2023-02-19T00:26:48.250Z,76.38
2023-02-19T00:29:25.028Z,76.37
2023-02-19T00:31:53.068Z,76.40
2023-02-19T00:34:23.121Z,76.18
2023-02-19T00:36:52.984Z,75.70
2023-02-19T00:39:21.932Z,76.29
2023-02-19T00:41:55.059Z,75.94
2023-02-19T00:44:26.981Z,75.80
2023-02-19T00:46:59.680Z,76.74
2023-02-19T00:49:27.715Z,76.72
2023-02-19T00:52:00.930Z,76.89
2023-02-19T00:54:33.724Z,76.87
2023-02-19T00:57:03.182Z,76.33
2023-02-19T00:59:35.529Z,76.20
2023-02-19T01:02:06.017Z,75.98
2023-02-19T01:04:35.049Z,76.57
2023-02-19T01:07:07.065Z,76.87
2023-02-19T01:09:45.869Z,76.65
2023-02-19T01:12:17.315Z,76.54
2023-02-19T01:14:57.192Z,76.69
2023-02-19T01:17:29.963Z,76.43
2023-02-19T01:19:59.675Z,76.82
2023-02-19T01:22:27.947Z,76.67
2023-02-19T01:25:01.200Z,76.46
2023-02-19T01:27:31.235Z,76.94
2023-02-19T01:30:01.069Z,76.41
2023-02-19T01:32:32.736Z,76.91
2023-02-19T01:35:01.733Z,76.82
2023-02-19T01:37:30.382Z,76.38
2023-02-19T01:39:59.674Z,77.06
2023-02-19T01:42:29.052Z,77.12
2023-02-19T01:45:27.628Z,77.31
2023-02-19T01:48:07.634Z,77.62
2023-02-19T01:50:41.442Z,77.75
2023-02-19T01:53:13.997Z,76.92
2023-02-19T01:55:45.926Z,77.02
2023-02-19T01:58:15.848Z,77.18
2023-02-19T02:00:48.918Z,77.45
2023-02-19T02:03:17.124Z,76.63
2023-02-19T02:05:55.425Z,77.27
2023-02-19T02:08:44.739Z,77.39
2023-02-19T02:11:15.291Z,77.81
2023-02-19T02:13:43.513Z,77.63
2023-02-19T02:16:23.333Z,77.69
2023-02-19T02:19:02.400Z,77.64
2023-02-19T02:21:55.595Z,78.41
2023-02-19T02:24:49.659Z,79.18
2023-02-19T02:27:39.608Z,78.60
2023-02-19T02:30:23.096Z,78.46
2023-02-19T02:32:58.212Z,78.49
2023-02-19T02:35:33.382Z,79.64
2023-02-19T02:38:07.134Z,80.29
2023-02-19T02:40:36.089Z,81.15
2023-02-19T02:43:04.877Z,81.53
2023-02-19T02:45:40.085Z,81.88
2023-02-19T02:48:23.287Z,81.80
2023-02-19T02:50:55.155Z,82.38
2023-02-19T02:53:48.518Z,82.16
2023-02-19T02:56:20.169Z,81.78
2023-02-19T02:58:50.823Z,82.04
2023-02-19T03:01:42.681Z,81.45
2023-02-19T03:04:14.093Z,81.11
2023-02-19T03:06:56.326Z,81.54
2023-02-19T03:09:34.823Z,81.52
2023-02-19T03:12:24.310Z,80.66
2023-02-19T03:15:16.312Z,80.55
2023-02-19T03:18:11.545Z,80.42
2023-02-19T03:20:45.936Z,80.27
2023-02-19T03:23:15.961Z,81.12
2023-02-19T03:26:02.389Z,80.26
2023-02-19T03:28:48.068Z,80.23
2023-02-19T03:31:21.478Z,80.34
2023-02-19T03:34:00.507Z,80.51
2023-02-19T03:36:36.160Z,80.02
2023-02-19T03:39:11.910Z,79.99
2023-02-19T03:41:50.399Z,79.79
2023-02-19T03:44:25.262Z,80.17
2023-02-19T03:46:58.112Z,80.64
2023-02-19T03:49:34.793Z,79.79
2023-02-19T03:52:14.936Z,80.79
2023-02-19T03:54:53.707Z,80.18
2023-02-19T03:57:29.356Z,80.31
2023-02-19T04:00:04.996Z,80.00
2023-02-19T04:02:41.224Z,80.72
2023-02-19T04:05:17.229Z,81.10
2023-02-19T04:07:50.267Z,81.36
2023-02-19T04:10:20.292Z,81.45
2023-02-19T04:12:55.362Z,80.98
2023-02-19T04:15:29.144Z,81.02
2023-02-19T04:18:03.353Z,81.20
2023-02-19T04:20:40.850Z,82.84
2023-02-19T04:23:09.799Z,83.71
2023-02-19T04:25:41.076Z,84.04
2023-02-19T04:28:13.095Z,83.20
2023-02-19T04:30:43.124Z,83.05
2023-02-19T04:33:11.530Z,83.10
2023-02-19T04:35:45.045Z,82.52
2023-02-19T04:38:14.373Z,82.32
2023-02-19T04:40:43.530Z,82.62
2023-02-19T04:43:14.758Z,81.78
2023-02-19T04:45:43.015Z,81.16
2023-02-19T04:48:26.293Z,81.22
2023-02-19T04:50:56.896Z,80.51
2023-02-19T04:53:26.449Z,79.95
2023-02-19T04:55:55.903Z,79.84
2023-02-19T04:58:25.421Z,79.41
2023-02-19T05:00:54.003Z,78.61
2023-02-19T05:03:22.507Z,78.77
2023-02-19T05:05:51.287Z,79.18
2023-02-19T05:08:21.448Z,78.53
2023-02-19T05:10:49.982Z,78.23
2023-02-19T05:13:20.054Z,77.92
2023-02-19T05:16:00.090Z,77.69
2023-02-19T05:18:28.528Z,78.13
2023-02-19T05:20:58.584Z,77.35
2023-02-19T05:23:32.070Z,77.67
2023-02-19T05:26:01.450Z,77.75
2023-02-19T05:28:32.021Z,77.13
2023-02-19T05:31:06.110Z,77.35
2023-02-19T05:33:35.700Z,77.47
2023-02-19T05:36:11.307Z,78.08
2023-02-19T05:38:42.741Z,77.59
2023-02-19T05:41:16.826Z,77.91
2023-02-19T05:43:49.106Z,77.60
2023-02-19T05:46:19.871Z,77.44
2023-02-19T05:48:50.456Z,77.74
2023-02-19T05:51:21.547Z,77.95
2023-02-19T05:53:55.540Z,76.98
2023-02-19T05:56:35.297Z,77.02
2023-02-19T05:59:06.899Z,76.42
2023-02-19T06:01:37.411Z,76.38
2023-02-19T06:04:07.084Z,75.58
2023-02-19T06:06:40.012Z,75.83
2023-02-19T06:09:10.011Z,76.40
2023-02-19T06:11:39.066Z,75.66
2023-02-19T06:14:11.251Z,76.54
2023-02-19T06:16:41.491Z,75.77
2023-02-19T06:19:10.048Z,75.77
2023-02-19T06:21:41.521Z,75.29
2023-02-19T06:24:13.138Z,75.87
2023-02-19T06:26:43.782Z,75.89
2023-02-19T06:29:14.714Z,75.34
2023-02-19T06:31:47.020Z,75.63
2023-02-19T06:34:16.875Z,75.46
2023-02-19T06:36:52.667Z,74.64
2023-02-19T06:39:22.466Z,74.87
2023-02-19T06:41:54.826Z,74.78
2023-02-19T06:44:24.225Z,74.75
2023-02-19T06:47:00.547Z,75.20
2023-02-19T06:49:31.716Z,75.56
2023-02-19T06:52:02.003Z,74.52
2023-02-19T06:54:31.550Z,74.79
2023-02-19T06:56:59.483Z,74.43
2023-02-19T06:59:28.300Z,74.43
2023-02-19T07:01:59.174Z,75.36
2023-02-19T07:04:29.069Z,77.00
2023-02-19T07:06:58.336Z,76.91
2023-02-19T07:09:28.811Z,76.57
2023-02-19T07:11:58.867Z,76.56
2023-02-19T07:14:29.791Z,78.90
2023-02-19T07:16:59.717Z,77.47
2023-02-19T07:19:30.828Z,77.37
2023-02-19T07:22:01.782Z,76.93
2023-02-19T07:24:33.548Z,77.25
2023-02-19T07:27:05.198Z,76.70
2023-02-19T07:29:35.735Z,76.79
2023-02-19T07:32:08.805Z,77.15
2023-02-19T07:34:45.815Z,77.92
2023-02-19T07:37:21.293Z,77.76
2023-02-19T07:39:53.669Z,78.50
2023-02-19T07:42:26.601Z,78.06
2023-02-19T07:45:00.504Z,77.95
2023-02-19T07:47:30.807Z,77.59
2023-02-19T07:49:59.427Z,77.86
2023-02-19T07:52:28.959Z,78.05
2023-02-19T07:54:57.275Z,77.62
2023-02-19T07:57:37.761Z,77.24
2023-02-19T08:00:10.891Z,76.85
2023-02-19T08:02:57.177Z,76.76
2023-02-19T08:05:28.183Z,77.50
2023-02-19T08:07:56.556Z,77.34
2023-02-19T08:10:51.525Z,78.03
2023-02-19T08:13:23.401Z,77.62
2023-02-19T08:16:10.900Z,77.06
2023-02-19T08:18:46.717Z,76.44
2023-02-19T08:21:15.146Z,75.89
2023-02-19T08:23:43.353Z,76.83
2023-02-19T08:26:15.161Z,77.41
2023-02-19T08:28:45.204Z,80.20
2023-02-19T08:31:15.560Z,81.95
2023-02-19T08:33:43.961Z,82.17
2023-02-19T08:36:16.563Z,83.03
2023-02-19T08:38:44.529Z,83.08
2023-02-19T08:41:14.571Z,85.44
2023-02-19T08:43:49.576Z,83.87
2023-02-19T08:46:19.322Z,83.62
2023-02-19T08:48:48.170Z,82.52
2023-02-19T08:51:18.160Z,83.65
2023-02-19T08:53:48.567Z,83.65
2023-02-19T08:56:21.507Z,81.95
2023-02-19T08:58:51.087Z,80.92
2023-02-19T09:01:20.357Z,82.13
2023-02-19T09:03:48.641Z,79.06
2023-02-19T09:06:22.885Z,80.42
2023-02-19T09:08:52.188Z,78.67
2023-02-19T09:11:23.129Z,78.12
2023-02-19T09:13:52.405Z,78.88
2023-02-19T09:16:22.243Z,80.16
2023-02-19T09:18:52.414Z,76.26
2023-02-19T09:21:21.627Z,76.21
2023-02-19T09:23:50.245Z,76.43
2023-02-19T09:26:18.523Z,77.26
2023-02-19T09:28:48.728Z,78.60
2023-02-19T09:31:21.287Z,79.62
2023-02-19T09:33:50.709Z,76.21
2023-02-19T09:36:22.985Z,78.67
2023-02-19T09:38:53.912Z,76.28
2023-02-19T09:41:32.172Z,75.85
2023-02-19T09:44:02.385Z,76.20
2023-02-19T09:46:41.426Z,76.69
2023-02-19T09:49:21.437Z,79.72
2023-02-19T09:51:54.037Z,80.38
2023-02-19T09:54:24.217Z,78.96
2023-02-19T09:56:56.248Z,81.80
2023-02-19T09:59:28.986Z,79.95
2023-02-19T10:02:05.232Z,79.05
2023-02-19T10:04:35.374Z,79.05
2023-02-19T10:07:04.578Z,79.67
2023-02-19T10:09:34.200Z,81.20
2023-02-19T10:12:03.482Z,79.36
2023-02-19T10:14:38.906Z,82.17
2023-02-19T10:17:25.009Z,83.00
2023-02-19T10:19:55.138Z,82.29
2023-02-19T10:22:27.848Z,82.73
2023-02-19T10:24:58.113Z,83.40
2023-02-19T10:27:34.308Z,86.17
2023-02-19T10:30:05.200Z,85.89
2023-02-19T10:32:34.978Z,85.62
2023-02-19T10:35:14.268Z,84.17
2023-02-19T10:37:52.574Z,82.75
2023-02-19T10:40:23.987Z,83.21
2023-02-19T10:43:08.299Z,83.72
2023-02-19T10:45:48.739Z,83.65
2023-02-19T10:48:26.032Z,84.20
2023-02-19T10:51:00.575Z,83.32
2023-02-19T10:53:47.580Z,83.03
2023-02-19T10:56:17.992Z,83.82
2023-02-19T10:58:47.669Z,85.62
2023-02-19T11:01:22.218Z,84.55
2023-02-19T11:03:55.891Z,85.14
2023-02-19T11:06:28.470Z,84.44
2023-02-19T11:09:08.290Z,83.67
2023-02-19T11:11:42.933Z,83.86
2023-02-19T11:14:19.482Z,83.58
2023-02-19T11:16:52.011Z,82.00
2023-02-19T11:19:55.936Z,80.43
2023-02-19T11:22:34.438Z,80.19
2023-02-19T11:25:27.084Z,78.39
2023-02-19T11:27:58.032Z,80.31
2023-02-19T11:30:39.310Z,79.05
2023-02-19T11:33:28.155Z,78.50
2023-02-19T11:36:23.261Z,76.11
2023-02-19T11:38:53.615Z,80.86
2023-02-19T11:41:43.018Z,79.77
2023-02-19T11:44:32.418Z,77.26
2023-02-19T11:47:17.628Z,76.58
2023-02-19T11:49:57.818Z,76.75
2023-02-19T11:52:38.416Z,78.35
2023-02-19T11:55:25.889Z,77.44
2023-02-19T11:58:16.287Z,75.66
2023-02-19T12:00:57.020Z,75.64
2023-02-19T12:03:42.510Z,74.09
2023-02-19T12:06:21.166Z,74.48
2023-02-19T12:09:23.360Z,77.38
2023-02-19T12:12:05.081Z,76.06
2023-02-19T12:14:55.379Z,74.22
2023-02-19T12:17:56.596Z,73.71
2023-02-19T12:20:34.953Z,75.21
2023-02-19T12:23:36.529Z,71.56
2023-02-19T12:26:18.326Z,74.68
2023-02-19T12:29:28.387Z,71.17
2023-02-19T12:32:22.568Z,70.98
2023-02-19T12:35:19.624Z,72.27
2023-02-19T12:37:54.089Z,69.98
2023-02-19T12:40:39.402Z,74.76
2023-02-19T12:43:16.911Z,73.10
2023-02-19T12:45:50.041Z,71.73
2023-02-19T12:48:31.025Z,72.43
2023-02-19T12:51:06.647Z,73.38
2023-02-19T12:53:44.345Z,77.15
2023-02-19T12:56:18.782Z,78.65
2023-02-19T12:58:56.170Z,77.92
2023-02-19T13:01:31.447Z,80.24
2023-02-19T13:04:18.084Z,80.92
2023-02-19T13:06:53.194Z,76.61
2023-02-19T13:09:29.946Z,77.16
2023-02-19T13:12:03.856Z,75.04
2023-02-19T13:14:42.940Z,75.18
2023-02-19T13:17:26.923Z,74.53
2023-02-19T13:20:15.294Z,72.98
2023-02-19T13:23:10.296Z,70.64
2023-02-19T13:26:00.052Z,72.74
2023-02-19T13:28:45.284Z,72.25
2023-02-19T13:31:31.972Z,72.24
2023-02-19T13:34:11.931Z,71.65
2023-02-19T13:36:41.467Z,68.46
2023-02-19T13:41:54.776Z,68.14
2023-02-19T13:44:27.062Z,68.01
2023-02-19T13:46:57.183Z,70.00
2023-02-19T13:49:50.978Z,66.56
2023-02-19T13:52:41.618Z,69.66
2023-02-19T13:55:58.234Z,70.88
2023-02-19T13:58:55.333Z,68.21
2023-02-19T14:02:14.167Z,70.23
2023-02-19T14:04:51.776Z,68.84
2023-02-19T14:07:52.631Z,67.86
2023-02-19T14:10:57.981Z,69.02
2023-02-19T14:14:08.643Z,70.30
2023-02-19T14:17:22.104Z,72.08
2023-02-19T14:19:58.733Z,68.29
2023-02-19T14:23:15.904Z,69.62
2023-02-19T14:25:55.490Z,68.25
2023-02-19T14:28:31.300Z,67.25
2023-02-19T14:31:04.749Z,70.03
2023-02-19T14:33:37.974Z,67.21
2023-02-19T14:36:20.841Z,67.40
2023-02-19T14:38:54.777Z,70.46
2023-02-19T14:41:25.952Z,70.27
2023-02-19T14:43:58.002Z,66.93
2023-02-19T14:46:32.085Z,68.54
2023-02-19T14:49:07.969Z,68.95
2023-02-19T14:51:45.190Z,66.23
2023-02-19T14:54:19.259Z,67.38
2023-02-19T14:56:52.179Z,66.99
2023-02-19T14:59:28.293Z,67.77
2023-02-19T15:01:58.707Z,66.07
2023-02-19T15:04:34.378Z,66.58
2023-02-19T15:07:10.642Z,66.59
2023-02-19T15:09:53.209Z,66.36
2023-02-19T15:12:25.945Z,66.32
2023-02-19T15:15:03.367Z,65.58
2023-02-19T15:17:39.270Z,65.12
2023-02-19T15:20:14.440Z,64.42
2023-02-19T15:22:46.966Z,64.78
2023-02-19T15:25:21.197Z,65.14
2023-02-19T15:27:53.027Z,64.76
2023-02-19T15:30:24.175Z,65.79
2023-02-19T15:33:00.106Z,65.34
2023-02-19T15:35:39.052Z,66.32
2023-02-19T15:38:19.634Z,66.49
2023-02-19T15:40:52.773Z,65.58
2023-02-19T15:43:29.342Z,66.27
2023-02-19T15:46:04.684Z,66.45
2023-02-19T15:48:41.446Z,67.42
2023-02-19T15:51:18.905Z,66.80
2023-02-19T15:53:53.383Z,66.20
2023-02-19T15:56:29.888Z,66.77
2023-02-19T15:59:06.005Z,67.24
2023-02-19T16:01:40.271Z,67.43
2023-02-19T16:04:27.926Z,66.39
2023-02-19T16:07:02.139Z,66.21
2023-02-19T16:09:40.649Z,65.75
2023-02-19T16:12:23.208Z,66.38
2023-02-19T16:14:56.709Z,66.17
2023-02-19T16:17:37.513Z,66.82
2023-02-19T16:20:13.506Z,67.14
2023-02-19T16:22:46.862Z,68.30
2023-02-19T16:25:40.994Z,67.38
2023-02-19T16:28:20.723Z,67.27
2023-02-19T16:30:59.598Z,67.67
2023-02-19T16:33:42.128Z,67.58
2023-02-19T16:36:42.578Z,67.87
2023-02-19T16:39:30.276Z,67.38
2023-02-19T16:42:24.175Z,67.98
2023-02-19T16:44:52.374Z,67.55
2023-02-19T16:47:29.912Z,67.58
2023-02-19T16:50:05.053Z,68.15
2023-02-19T16:52:33.329Z,67.09
2023-02-19T16:55:04.397Z,67.68
2023-02-19T16:57:34.518Z,67.96
2023-02-19T17:00:02.811Z,67.43
2023-02-19T17:02:35.563Z,67.86
2023-02-19T17:05:05.601Z,67.35
2023-02-19T17:07:37.724Z,68.33
2023-02-19T17:10:07.268Z,67.95
2023-02-19T17:12:40.182Z,67.71
2023-02-19T17:15:10.133Z,68.29
2023-02-19T17:17:40.448Z,68.23
2023-02-19T17:20:21.348Z,68.52
2023-02-19T17:22:49.693Z,69.09
2023-02-19T17:25:18.403Z,69.06
2023-02-19T17:27:48.480Z,69.26
2023-02-19T17:30:25.446Z,68.44
2023-02-19T17:32:55.429Z,69.39
2023-02-19T17:35:23.744Z,69.57
2023-02-19T17:37:54.317Z,69.03
2023-02-19T17:40:32.774Z,69.76
2023-02-19T17:43:09.249Z,69.74
2023-02-19T17:45:37.517Z,70.00
2023-02-19T17:48:06.614Z,70.32
2023-02-19T17:50:36.247Z,69.70
2023-02-19T17:53:07.175Z,70.48
2023-02-19T17:55:36.795Z,70.83
2023-02-19T17:58:09.546Z,70.96
2023-02-19T18:00:38.377Z,71.03
2023-02-19T18:03:11.374Z,70.56
2023-02-19T18:05:42.869Z,70.21
2023-02-19T18:08:13.979Z,70.27
2023-02-19T18:10:45.648Z,70.28
2023-02-19T18:13:24.639Z,69.82
2023-02-19T18:15:59.298Z,69.76
2023-02-19T18:18:32.307Z,69.70
2023-02-19T18:21:05.921Z,69.14
2023-02-19T18:23:38.898Z,69.23
2023-02-19T18:26:10.473Z,68.90
2023-02-19T18:28:41.289Z,68.96
2023-02-19T18:31:11.565Z,70.01
2023-02-19T18:33:41.278Z,70.31
2023-02-19T18:36:13.078Z,70.70
2023-02-19T18:38:42.409Z,70.73
2023-02-19T18:41:14.430Z,70.40
2023-02-19T18:43:46.172Z,71.36
2023-02-19T18:46:17.071Z,71.14
2023-02-19T18:48:45.591Z,70.18
2023-02-19T18:51:14.212Z,70.67
2023-02-19T18:53:53.064Z,71.68
2023-02-19T18:56:23.333Z,70.92
2023-02-19T18:58:53.564Z,70.89
2023-02-19T19:01:31.566Z,71.10
2023-02-19T19:04:05.383Z,71.45
2023-02-19T19:06:36.108Z,71.43
2023-02-19T19:09:04.665Z,71.31
2023-02-19T19:11:33.111Z,70.90
2023-02-19T19:14:03.638Z,70.95
2023-02-19T19:16:32.807Z,71.37
2023-02-19T19:19:00.922Z,70.97
2023-02-19T19:21:29.520Z,71.08
2023-02-19T19:23:59.246Z,71.11
2023-02-19T19:26:27.400Z,71.43
2023-02-19T19:28:56.519Z,72.03
2023-02-19T19:31:27.353Z,71.45
2023-02-19T19:33:56.097Z,71.25
2023-02-19T19:36:25.057Z,71.97
2023-02-19T19:38:54.047Z,71.74
2023-02-19T19:41:22.819Z,71.65
2023-02-19T19:43:54.909Z,71.08
2023-02-19T19:46:24.186Z,71.70
2023-02-19T19:49:06.029Z,72.21
2023-02-19T19:51:34.682Z,71.67
2023-02-19T19:54:08.179Z,71.89
2023-02-19T19:56:42.282Z,71.51
2023-02-19T19:59:11.630Z,71.55
2023-02-19T20:01:48.565Z,71.03
2023-02-19T20:04:22.009Z,71.00
2023-02-19T20:06:52.377Z,71.12
2023-02-19T20:09:25.538Z,71.20
2023-02-19T20:11:54.767Z,71.53
2023-02-19T20:14:25.113Z,71.48
2023-02-19T20:16:55.453Z,71.83
2023-02-19T20:19:24.884Z,71.55
2023-02-19T20:21:55.440Z,71.90
2023-02-19T20:24:28.678Z,71.16
2023-02-19T20:27:01.007Z,71.85
2023-02-19T20:29:34.230Z,71.99
2023-02-19T20:32:04.606Z,71.75
2023-02-19T20:34:38.704Z,71.88
2023-02-19T20:37:09.330Z,71.90
2023-02-19T20:39:38.993Z,71.89
2023-02-19T20:42:10.934Z,71.75
2023-02-19T20:44:39.501Z,72.12
2023-02-19T20:47:09.617Z,72.67
2023-02-19T20:49:41.416Z,72.68
2023-02-19T20:52:12.378Z,72.93
2023-02-19T20:54:43.075Z,72.64
2023-02-19T20:57:13.217Z,72.45
2023-02-19T20:59:46.580Z,72.58
2023-02-19T21:02:19.699Z,72.09
2023-02-19T21:04:49.063Z,71.73
2023-02-19T21:07:20.159Z,72.17
2023-02-19T21:09:48.229Z,71.29
2023-02-19T21:12:17.180Z,71.70
2023-02-19T21:14:45.058Z,72.82
2023-02-19T21:17:14.093Z,72.63
2023-02-19T21:19:42.333Z,73.43
2023-02-19T21:22:13.574Z,72.84
2023-02-19T21:24:42.327Z,73.55
2023-02-19T21:27:10.944Z,72.86
2023-02-19T21:29:40.127Z,73.30
2023-02-19T21:32:10.643Z,73.39
2023-02-19T21:34:39.412Z,73.63
2023-02-19T21:37:10.979Z,73.76
2023-02-19T21:39:43.019Z,73.98
2023-02-19T21:42:11.414Z,73.30
2023-02-19T21:44:41.686Z,73.12
2023-02-19T21:47:13.124Z,73.54
2023-02-19T21:49:42.862Z,74.08
2023-02-19T21:52:12.094Z,73.19
2023-02-19T21:54:41.704Z,73.48
2023-02-19T21:57:10.451Z,73.25
2023-02-19T21:59:39.643Z,72.47
2023-02-19T22:02:08.639Z,73.13
2023-02-19T22:04:36.683Z,73.46
2023-02-19T22:07:05.289Z,73.27
2023-02-19T22:09:34.794Z,73.12
2023-02-19T22:12:07.799Z,73.07
2023-02-19T22:14:36.735Z,73.65
2023-02-19T22:17:07.368Z,73.91
2023-02-19T22:19:37.456Z,74.00
2023-02-19T22:22:07.068Z,74.08
2023-02-19T22:24:36.718Z,72.29
2023-02-19T22:27:07.981Z,72.51
2023-02-19T22:29:38.998Z,72.96
2023-02-19T22:32:07.300Z,71.32
2023-02-19T22:34:41.109Z,72.02
2023-02-19T22:37:09.592Z,71.33
2023-02-19T22:39:40.630Z,71.29
2023-02-19T22:42:10.541Z,71.13
2023-02-19T22:44:39.537Z,70.55
2023-02-19T22:47:07.739Z,70.98
2023-02-19T22:49:43.600Z,70.68
2023-02-19T22:52:15.768Z,70.77
2023-02-19T22:54:44.261Z,70.67
2023-02-19T22:57:14.018Z,68.57
2023-02-19T22:59:42.264Z,68.62
2023-02-19T23:02:11.484Z,69.23
2023-02-19T23:04:41.976Z,68.36
2023-02-19T23:07:11.984Z,68.18
2023-02-19T23:09:40.288Z,68.12
2023-02-19T23:12:11.885Z,67.58
2023-02-19T23:14:44.868Z,68.42
2023-02-19T23:17:15.923Z,68.92
2023-02-19T23:19:43.938Z,69.06
2023-02-19T23:22:13.571Z,68.72
2023-02-19T23:24:42.058Z,68.73
2023-02-19T23:27:14.598Z,68.86
2023-02-19T23:29:44.495Z,68.90
2023-02-19T23:32:14.001Z,68.80
2023-02-19T23:34:52.288Z,69.19
2023-02-19T23:37:21.529Z,70.29
2023-02-19T23:39:49.527Z,68.94
2023-02-19T23:42:18.441Z,68.06
2023-02-19T23:44:52.436Z,69.22
2023-02-19T23:47:22.503Z,69.10
2023-02-19T23:49:51.386Z,68.71
2023-02-19T23:52:23.882Z,69.53
2023-02-19T23:54:52.675Z,70.23
2023-02-19T23:57:20.589Z,70.23
2023-02-19T23:59:50.179Z,70.84
